createdAt,value
2018-07-28T00:00:12.798Z,68.66
2018-07-28T00:01:12.751Z,69.44
2018-07-28T00:02:12.485Z,69.21
2018-07-28T00:03:12.741Z,69.24
2018-07-28T00:04:12.736Z,69.21
2018-07-28T00:05:12.736Z,69.5
2018-07-28T00:06:12.456Z,69.79
2018-07-28T00:07:12.716Z,69.21
2018-07-28T00:08:12.709Z,69.41
2018-07-28T00:09:12.443Z,69.41
2018-07-28T00:10:12.446Z,70.37
2018-07-28T00:11:12.428Z,69.99
2018-07-28T00:12:12.423Z,70.67
2018-07-28T00:13:12.412Z,69.79
2018-07-28T00:14:12.674Z,69.99
2018-07-28T00:15:12.604Z,70.57
2018-07-28T00:16:12.663Z,70.37
2018-07-28T00:17:12.663Z,70.37
2018-07-28T00:18:12.386Z,70.57
2018-07-28T00:19:12.641Z,71.15
2018-07-28T00:20:12.376Z,70.96
2018-07-28T00:21:12.366Z,71.06
2018-07-28T00:22:12.624Z,70.86
2018-07-28T00:23:12.356Z,71.54
2018-07-28T00:24:12.612Z,71.15
2018-07-28T00:25:12.348Z,71.25
2018-07-28T00:26:12.338Z,72.12
2018-07-28T00:27:12.604Z,72.12
2018-07-28T00:28:12.589Z,72.12
2018-07-28T00:29:12.584Z,71.73
2018-07-28T00:30:12.590Z,72.31
2018-07-28T00:31:12.570Z,71.73
2018-07-28T00:32:12.562Z,72.51
2018-07-28T00:33:12.558Z,72.12
2018-07-28T00:34:12.551Z,72.41
2018-07-28T00:35:12.546Z,72.51
2018-07-28T00:36:12.543Z,73.38
2018-07-28T00:37:12.534Z,73.09
2018-07-28T00:38:12.262Z,73.38
2018-07-28T00:39:12.524Z,73.19
2018-07-28T00:40:12.253Z,72.89
2018-07-28T00:41:12.511Z,73.86
2018-07-28T00:42:12.509Z,73.67
2018-07-28T00:43:12.231Z,72.8
2018-07-28T00:44:12.492Z,74.22
2018-07-28T00:45:12.221Z,74.35
2018-07-28T00:46:12.482Z,73.58
2018-07-28T00:47:12.208Z,73.86
2018-07-28T00:48:12.206Z,73.86
2018-07-28T00:49:12.464Z,73.48
2018-07-28T00:50:12.458Z,75.23
2018-07-28T00:51:12.184Z,73.58
2018-07-28T00:52:12.443Z,73.58
2018-07-28T00:53:12.434Z,73.67
2018-07-28T00:54:12.186Z,74.45
2018-07-28T00:55:12.442Z,75.13
2018-07-28T00:56:12.159Z,74.64
2018-07-28T00:57:12.413Z,74.12
2018-07-28T00:58:12.409Z,74.06
2018-07-28T00:59:12.396Z,73.77
2018-07-28T01:00:12.126Z,74.16
2018-07-28T01:01:12.388Z,74.12
2018-07-28T01:02:12.119Z,74.51
2018-07-28T01:03:12.110Z,75.87
2018-07-28T01:04:12.369Z,75.96
2018-07-28T01:05:12.370Z,74.99
2018-07-28T01:06:12.359Z,75.38
2018-07-28T01:07:12.349Z,75.57
2018-07-28T01:08:12.077Z,74.9
2018-07-28T01:09:12.388Z,75.77
2018-07-28T01:10:12.331Z,76.6
2018-07-28T01:11:12.333Z,77.22
2018-07-28T01:12:12.317Z,78.54
2018-07-28T01:13:12.050Z,76.99
2018-07-28T01:14:12.049Z,76.99
2018-07-28T01:15:12.036Z,77.76
2018-07-28T01:16:12.291Z,76.89
2018-07-28T01:17:12.026Z,77.76
2018-07-28T01:18:12.279Z,77.67
2018-07-28T01:19:12.279Z,77.76
2018-07-28T01:20:12.006Z,77.76
2018-07-28T01:21:12.264Z,78.34
2018-07-28T01:22:12.255Z,78.54
2018-07-28T01:23:11.987Z,78.54
2018-07-28T01:24:11.982Z,78.44
2018-07-28T01:25:12.242Z,78.44
2018-07-28T01:26:11.968Z,80.67
2018-07-28T01:27:12.227Z,80.38
2018-07-28T01:28:11.954Z,80.96
2018-07-28T01:29:12.207Z,81.05
2018-07-28T01:30:12.206Z,79.85
2018-07-28T01:31:12.200Z,80.63
2018-07-28T01:32:12.185Z,81.05
2018-07-28T01:33:12.184Z,80.09
2018-07-28T01:34:11.913Z,82.03
2018-07-28T01:35:12.174Z,80.67
2018-07-28T01:36:12.174Z,81.7
2018-07-28T01:37:12.158Z,81.5
2018-07-28T01:38:11.893Z,80.67
2018-07-28T01:39:11.883Z,80.38
2018-07-28T01:40:12.137Z,82.12
2018-07-28T01:41:11.878Z,83.28
2018-07-28T01:42:12.139Z,82.37
2018-07-28T01:43:12.122Z,82.41
2018-07-28T01:44:11.853Z,82.28
2018-07-28T01:45:12.107Z,83.34
2018-07-28T01:46:12.104Z,82.28
2018-07-28T01:47:11.829Z,84.99
2018-07-28T01:48:12.088Z,84.11
2018-07-28T01:49:12.087Z,84.69
2018-07-28T01:50:11.811Z,84.99
2018-07-28T01:51:11.800Z,86.73
2018-07-28T01:52:11.797Z,85.18
2018-07-28T01:53:12.054Z,85.96
2018-07-28T01:54:12.052Z,85.96
2018-07-28T01:55:11.776Z,87.02
2018-07-28T01:56:12.074Z,86.24
2018-07-28T01:57:11.763Z,87.21
2018-07-28T01:58:12.023Z,85.86
2018-07-28T01:59:11.749Z,86.24
2018-07-28T02:00:12.017Z,85.86
2018-07-28T02:01:12.009Z,86.92
2018-07-28T02:02:11.732Z,85.37
2018-07-28T02:03:11.722Z,85.96
2018-07-28T02:04:11.984Z,86.24
2018-07-28T02:05:11.974Z,87.21
2018-07-28T02:06:11.964Z,88.76
2018-07-28T02:07:11.967Z,88.67
2018-07-28T02:08:11.959Z,87.65
2018-07-28T02:09:11.948Z,88.23
2018-07-28T02:10:11.944Z,89.63
2018-07-28T02:11:11.669Z,90.56
2018-07-28T02:12:11.665Z,88.81
2018-07-28T02:13:11.658Z,89.01
2018-07-28T02:14:11.656Z,89.01
2018-07-28T02:15:26.960Z,90.12
2018-07-28T02:16:11.640Z,89.15
2018-07-28T02:17:11.895Z,89.01
2018-07-28T02:18:11.884Z,90.36
2018-07-28T02:19:11.619Z,90.65
2018-07-28T02:20:11.875Z,91.42
2018-07-28T02:21:11.606Z,91.52
2018-07-28T02:22:11.594Z,90.46
2018-07-28T02:23:11.855Z,91.24
2018-07-28T02:24:11.589Z,91.42
2018-07-28T02:25:11.579Z,91.52
2018-07-28T02:26:11.835Z,91.72
2018-07-28T02:27:11.565Z,91.52
2018-07-28T02:28:11.561Z,93.17
2018-07-28T02:29:11.820Z,92.68
2018-07-28T02:30:11.822Z,94.71
2018-07-28T02:31:11.799Z,93.65
2018-07-28T02:32:11.531Z,94.23
2018-07-28T02:33:11.535Z,94.52
2018-07-28T02:34:11.783Z,93.55
2018-07-28T02:35:11.781Z,94.43
2018-07-28T02:36:11.506Z,96.17
2018-07-28T02:37:11.507Z,94.52
2018-07-28T02:38:11.759Z,95.29
2018-07-28T02:39:11.488Z,95.01
2018-07-28T02:40:11.474Z,96.07
2018-07-28T02:41:11.467Z,96.41
2018-07-28T02:42:11.463Z,96.75
2018-07-28T02:43:11.718Z,98.68
2018-07-28T02:44:11.710Z,98.3
2018-07-28T02:45:11.443Z,98.44
2018-07-28T02:46:11.433Z,98.35
2018-07-28T02:47:11.697Z,97.77
2018-07-28T02:48:11.420Z,99.99
2018-07-28T02:49:11.714Z,98.83
2018-07-28T02:50:11.681Z,99.16
2018-07-28T02:51:11.397Z,99.55
2018-07-28T02:52:11.663Z,99.36
2018-07-28T02:53:11.385Z,98.73
2018-07-28T02:54:11.377Z,98.73
2018-07-28T02:55:11.373Z,97.09
2018-07-28T02:56:11.627Z,98.25
2018-07-28T02:57:11.357Z,98.83
2018-07-28T02:58:11.348Z,97.28
2018-07-28T02:59:11.609Z,97.67
2018-07-28T03:00:11.744Z,98.25
2018-07-28T03:01:11.333Z,99.21
2018-07-28T03:02:11.323Z,99.41
2018-07-28T03:03:11.586Z,99.6
2018-07-28T03:04:11.571Z,99.99
2018-07-28T03:05:11.566Z,99.99
2018-07-28T03:06:11.293Z,99.99
2018-07-28T03:07:11.288Z,99.99
2018-07-28T03:08:11.282Z,99.99
2018-07-28T03:09:11.535Z,99.99
2018-07-28T03:10:11.261Z,99.99
2018-07-28T03:11:11.522Z,99.99
2018-07-28T03:12:11.512Z,99.99
2018-07-28T03:13:11.510Z,99.99
2018-07-28T03:14:11.495Z,99.99
2018-07-28T03:15:11.494Z,99.99
2018-07-28T03:16:11.484Z,99.99
2018-07-28T03:17:11.216Z,99.99
2018-07-28T03:18:11.475Z,99.99
2018-07-28T03:19:11.200Z,99.99
2018-07-28T03:20:11.464Z,99.99
2018-07-28T03:21:11.450Z,99.99
2018-07-28T03:22:11.181Z,99.99
2018-07-28T03:23:11.438Z,99.99
2018-07-28T03:24:11.161Z,99.99
2018-07-28T03:25:11.419Z,99.99
2018-07-28T03:26:11.151Z,99.99
2018-07-28T03:27:11.407Z,99.99
2018-07-28T03:28:11.412Z,99.99
2018-07-28T03:29:11.130Z,99.99
2018-07-28T03:30:11.394Z,99.99
2018-07-28T03:31:11.112Z,99.99
2018-07-28T03:32:11.109Z,99.99
2018-07-28T03:33:11.100Z,99.99
2018-07-28T03:34:11.089Z,99.99
2018-07-28T03:35:11.083Z,99.99
2018-07-28T03:36:11.342Z,99.99
2018-07-28T03:37:11.336Z,99.99
2018-07-28T03:38:11.324Z,99.99
2018-07-28T03:39:11.315Z,99.99
2018-07-28T03:40:11.042Z,99.99
2018-07-28T03:41:11.303Z,99.99
2018-07-28T03:42:11.294Z,99.99
2018-07-28T03:43:11.287Z,99.99
2018-07-28T03:44:11.276Z,99.99
2018-07-28T03:45:11.269Z,99.99
2018-07-28T03:46:11.265Z,99.99
2018-07-28T03:47:11.255Z,99.99
2018-07-28T03:48:11.247Z,99.99
2018-07-28T03:49:11.297Z,99.99
2018-07-28T03:50:11.229Z,99.99
2018-07-28T03:51:11.231Z,99.99
2018-07-28T03:52:11.212Z,99.99
2018-07-28T03:53:10.942Z,99.99
2018-07-28T03:54:11.201Z,99.99
2018-07-28T03:55:11.194Z,99.99
2018-07-28T03:56:10.922Z,99.99
2018-07-28T03:57:10.917Z,99.99
2018-07-28T03:58:10.907Z,99.99
2018-07-28T03:59:11.171Z,99.99
2018-07-28T04:00:10.890Z,99.99
2018-07-28T04:01:11.150Z,99.99
2018-07-28T04:02:11.140Z,99.99
2018-07-28T04:03:11.138Z,99.99
2018-07-28T04:04:10.942Z,99.99
2018-07-28T04:05:11.122Z,99.99
2018-07-28T04:06:11.107Z,99.99
2018-07-28T04:07:10.843Z,99.99
2018-07-28T04:08:11.095Z,99.99
2018-07-28T04:09:10.828Z,99.99
2018-07-28T04:10:10.814Z,99.99
2018-07-28T04:11:11.069Z,99.99
2018-07-28T04:12:11.068Z,99.99
2018-07-28T04:13:11.060Z,99.99
2018-07-28T04:14:10.782Z,99.99
2018-07-28T04:15:10.778Z,99.99
2018-07-28T04:16:10.974Z,99.99
2018-07-28T04:17:10.763Z,99.99
2018-07-28T04:18:10.755Z,99.99
2018-07-28T04:19:11.013Z,99.99
2018-07-28T04:20:10.743Z,99.99
2018-07-28T04:21:10.732Z,99.99
2018-07-28T04:22:10.724Z,99.99
2018-07-28T04:23:10.982Z,99.99
2018-07-28T04:24:10.976Z,99.99
2018-07-28T04:25:10.967Z,99.99
2018-07-28T04:26:10.953Z,99.99
2018-07-28T04:27:10.690Z,99.99
2018-07-28T04:28:10.675Z,99.99
2018-07-28T04:29:10.671Z,99.99
2018-07-28T04:30:10.658Z,99.99
2018-07-28T04:31:10.917Z,99.99
2018-07-28T04:32:10.641Z,99.99
2018-07-28T04:33:10.898Z,99.99
2018-07-28T04:34:10.889Z,99.99
2018-07-28T04:35:10.619Z,99.99
2018-07-28T04:36:10.610Z,99.99
2018-07-28T04:37:11.052Z,99.99
2018-07-28T04:38:10.606Z,99.99
2018-07-28T04:39:10.873Z,99.99
2018-07-28T04:40:10.582Z,99.99
2018-07-28T04:41:10.571Z,99.99
2018-07-28T04:42:10.831Z,99.99
2018-07-28T04:43:10.831Z,99.99
2018-07-28T04:44:10.812Z,99.99
2018-07-28T04:45:10.811Z,99.99
2018-07-28T04:46:10.794Z,99.99
2018-07-28T04:47:10.790Z,99.99
2018-07-28T04:48:10.783Z,99.99
2018-07-28T04:49:10.774Z,99.99
2018-07-28T04:50:10.765Z,99.99
2018-07-28T04:51:10.762Z,99.99
2018-07-28T04:52:10.484Z,99.99
2018-07-28T04:53:10.486Z,99.99
2018-07-28T04:54:10.470Z,99.99
2018-07-28T04:55:10.722Z,99.99
2018-07-28T04:56:10.729Z,99.99
2018-07-28T04:57:10.445Z,99.99
2018-07-28T04:58:10.705Z,99.99
2018-07-28T04:59:10.703Z,99.99
2018-07-28T05:00:10.424Z,99.99
2018-07-28T05:01:10.682Z,99.99
2018-07-28T05:02:10.674Z,99.99
2018-07-28T05:03:10.456Z,99.99
2018-07-28T05:04:10.661Z,99.99
2018-07-28T05:05:10.651Z,99.99
2018-07-28T05:06:10.644Z,99.99
2018-07-28T05:07:10.379Z,99.99
2018-07-28T05:08:10.366Z,99.99
2018-07-28T05:09:10.638Z,99.99
2018-07-28T05:10:10.346Z,99.99
2018-07-28T05:11:10.344Z,99.99
2018-07-28T05:12:10.595Z,99.99
2018-07-28T05:13:10.319Z,99.99
2018-07-28T05:14:10.580Z,99.99
2018-07-28T05:15:10.572Z,99.99
2018-07-28T05:16:10.565Z,99.99
2018-07-28T05:17:10.560Z,99.99
2018-07-28T05:18:10.550Z,99.99
2018-07-28T05:19:10.539Z,99.99
2018-07-28T05:20:10.272Z,99.99
2018-07-28T05:21:10.526Z,99.99
2018-07-28T05:22:10.518Z,99.99
2018-07-28T05:23:10.247Z,99.99
2018-07-28T05:24:10.500Z,99.99
2018-07-28T05:25:10.496Z,99.99
2018-07-28T05:26:10.223Z,99.99
2018-07-28T05:27:10.213Z,99.99
2018-07-28T05:28:10.207Z,99.99
2018-07-28T05:29:10.466Z,99.99
2018-07-28T05:30:10.456Z,99.99
2018-07-28T05:31:10.455Z,99.99
2018-07-28T05:32:10.444Z,99.99
2018-07-28T05:33:10.168Z,99.99
2018-07-28T05:34:10.166Z,99.99
2018-07-28T05:35:10.417Z,99.99
2018-07-28T05:36:10.151Z,99.99
2018-07-28T05:37:10.496Z,99.99
2018-07-28T05:38:10.400Z,99.99
2018-07-28T05:39:10.486Z,99.99
2018-07-28T05:40:10.385Z,99.99
2018-07-28T05:41:10.374Z,99.99
2018-07-28T05:42:10.107Z,99.99
2018-07-28T05:43:10.097Z,99.99
2018-07-28T05:44:10.349Z,99.99
2018-07-28T05:45:10.083Z,99.99
2018-07-28T05:46:10.341Z,99.99
2018-07-28T05:47:10.332Z,99.99
2018-07-28T05:48:10.324Z,99.99
2018-07-28T05:49:10.322Z,99.99
2018-07-28T05:50:10.570Z,99.99
2018-07-28T05:51:10.305Z,99.99
2018-07-28T05:52:10.302Z,99.99
2018-07-28T05:53:10.024Z,99.99
2018-07-28T05:54:10.275Z,99.99
2018-07-28T05:55:10.275Z,99.99
2018-07-28T05:56:10.001Z,99.99
2018-07-28T05:57:10.256Z,99.99
2018-07-28T05:58:09.987Z,99.99
2018-07-28T05:59:10.245Z,99.99
2018-07-28T06:00:09.975Z,99.99
2018-07-28T06:01:09.963Z,99.99
2018-07-28T06:02:10.311Z,99.99
2018-07-28T06:03:10.209Z,99.99
2018-07-28T06:04:10.203Z,99.99
2018-07-28T06:05:10.200Z,99.99
2018-07-28T06:06:09.928Z,99.99
2018-07-28T06:07:09.925Z,99.99
2018-07-28T06:08:10.179Z,99.99
2018-07-28T06:09:10.171Z,99.99
2018-07-28T06:10:09.897Z,99.99
2018-07-28T06:11:10.152Z,99.99
2018-07-28T06:12:09.883Z,99.99
2018-07-28T06:13:10.145Z,99.99
2018-07-28T06:14:09.873Z,99.99
2018-07-28T06:15:09.861Z,99.99
2018-07-28T06:16:10.336Z,99.99
2018-07-28T06:17:10.110Z,99.99
2018-07-28T06:18:10.106Z,99.99
2018-07-28T06:19:09.836Z,99.99
2018-07-28T06:20:10.112Z,99.99
2018-07-28T06:21:09.824Z,99.99
2018-07-28T06:22:09.823Z,99.99
2018-07-28T06:23:10.078Z,99.99
2018-07-28T06:24:10.063Z,99.99
2018-07-28T06:25:10.059Z,99.99
2018-07-28T06:26:09.785Z,99.99
2018-07-28T06:27:09.781Z,99.99
2018-07-28T06:28:10.035Z,99.99
2018-07-28T06:29:10.035Z,99.99
2018-07-28T06:30:09.757Z,99.99
2018-07-28T06:31:10.018Z,99.99
2018-07-28T06:32:10.014Z,99.99
2018-07-28T06:33:09.998Z,99.99
2018-07-28T06:34:09.994Z,99.99
2018-07-28T06:35:09.988Z,99.99
2018-07-28T06:36:09.984Z,99.99
2018-07-28T06:37:09.709Z,99.99
2018-07-28T06:38:09.969Z,99.99
2018-07-28T06:39:09.704Z,99.99
2018-07-28T06:40:09.692Z,99.99
2018-07-28T06:41:09.956Z,99.99
2018-07-28T06:42:09.675Z,99.99
2018-07-28T06:43:09.670Z,99.99
2018-07-28T06:44:09.928Z,99.99
2018-07-28T06:45:09.659Z,99.99
2018-07-28T06:46:09.661Z,99.99
2018-07-28T06:47:09.942Z,99.99
2018-07-28T06:48:09.640Z,99.99
2018-07-28T06:49:09.901Z,99.99
2018-07-28T06:50:09.898Z,99.99
2018-07-28T06:51:09.620Z,99.99
2018-07-28T06:52:09.612Z,99.51
2018-07-28T06:53:09.608Z,99.99
2018-07-28T06:54:09.869Z,98.83
2018-07-28T06:55:09.866Z,99.99
2018-07-28T06:56:09.856Z,99.99
2018-07-28T06:57:09.848Z,99.99
2018-07-28T06:58:09.845Z,97.33
2018-07-28T06:59:09.570Z,94.6
2018-07-28T07:00:09.567Z,94.51
2018-07-28T07:01:09.558Z,95.57
2018-07-28T07:02:09.551Z,95.19
2018-07-28T07:03:09.811Z,95.48
2018-07-28T07:04:09.805Z,97.52
2018-07-28T07:05:09.797Z,98.39
2018-07-28T07:06:09.795Z,97.52
2018-07-28T07:07:09.790Z,99.65
2018-07-28T07:08:09.782Z,98.58
2018-07-28T07:09:09.511Z,98.1
2018-07-28T07:10:09.773Z,97.13
2018-07-28T07:11:09.770Z,96.36
2018-07-28T07:12:09.761Z,97.52
2018-07-28T07:13:09.754Z,97.71
2018-07-28T07:14:09.748Z,99.37
2018-07-28T07:15:09.478Z,97.81
2018-07-28T07:16:09.474Z,97.86
2018-07-28T07:17:09.731Z,96.31
2018-07-28T07:18:09.461Z,96.01
2018-07-28T07:19:09.455Z,97.13
2018-07-28T07:20:09.715Z,93.29
2018-07-28T07:21:09.709Z,94.75
2018-07-28T07:22:09.706Z,96.5
2018-07-28T07:23:09.435Z,97.96
2018-07-28T07:24:09.429Z,97.76
2018-07-28T07:25:09.420Z,98.05
2018-07-28T07:26:09.682Z,99.99
2018-07-28T07:27:09.409Z,99.99
2018-07-28T07:28:09.406Z,99.99
2018-07-28T07:29:09.668Z,99.99
2018-07-28T07:30:09.391Z,99.99
2018-07-28T07:31:09.388Z,99.99
2018-07-28T07:32:09.652Z,99.99
2018-07-28T07:33:09.379Z,99.99
2018-07-28T07:34:09.636Z,99.99
2018-07-28T07:35:09.634Z,99.99
2018-07-28T07:36:09.706Z,99.99
2018-07-28T07:37:09.616Z,99.99
2018-07-28T07:38:09.612Z,99.99
2018-07-28T07:39:09.345Z,99.99
2018-07-28T07:40:09.623Z,99.99
2018-07-28T07:41:09.595Z,99.99
2018-07-28T07:42:09.595Z,99.99
2018-07-28T07:43:09.603Z,99.99
2018-07-28T07:44:09.583Z,99.99
2018-07-28T07:45:09.572Z,99.99
2018-07-28T07:46:09.564Z,99.99
2018-07-28T07:47:09.374Z,99.99
2018-07-28T07:48:09.564Z,99.99
2018-07-28T07:49:09.552Z,99.99
2018-07-28T07:50:09.286Z,99.99
2018-07-28T07:51:09.550Z,99.99
2018-07-28T07:52:09.272Z,99.99
2018-07-28T07:53:09.531Z,99.99
2018-07-28T07:54:09.260Z,99.99
2018-07-28T07:55:09.253Z,99.99
2018-07-28T07:56:09.506Z,99.99
2018-07-28T07:57:09.239Z,99.99
2018-07-28T07:58:09.509Z,99.99
2018-07-28T07:59:09.229Z,99.99
2018-07-28T08:00:09.484Z,99.99
2018-07-28T08:01:09.486Z,99.99
2018-07-28T08:02:09.208Z,99.99
2018-07-28T08:03:09.475Z,99.99
2018-07-28T08:04:09.200Z,99.99
2018-07-28T08:05:09.194Z,99.99
2018-07-28T08:06:09.195Z,99.99
2018-07-28T08:07:09.189Z,99.99
2018-07-28T08:08:09.174Z,99.99
2018-07-28T08:09:09.436Z,99.99
2018-07-28T08:10:09.424Z,99.99
2018-07-28T08:11:09.424Z,99.99
2018-07-28T08:12:09.151Z,99.99
2018-07-28T08:13:09.406Z,99.99
2018-07-28T08:14:09.401Z,99.99
2018-07-28T08:15:09.395Z,99.99
2018-07-28T08:16:09.332Z,99.99
2018-07-28T08:17:09.386Z,99.99
2018-07-28T08:18:09.379Z,99.99
2018-07-28T08:19:09.108Z,99.99
2018-07-28T08:20:09.365Z,99.99
2018-07-28T08:21:09.096Z,99.99
2018-07-28T08:22:09.090Z,99.99
2018-07-28T08:23:09.354Z,99.99
2018-07-28T08:24:09.343Z,99.99
2018-07-28T08:25:09.339Z,99.99
2018-07-28T08:26:09.331Z,99.99
2018-07-28T08:27:09.058Z,99.99
2018-07-28T08:28:09.320Z,99.99
2018-07-28T08:29:09.057Z,99.99
2018-07-28T08:30:09.309Z,96.94
2018-07-28T08:31:09.035Z,82.22
2018-07-28T08:32:09.300Z,78.83
2018-07-28T08:33:09.284Z,80.24
2018-07-28T08:34:09.283Z,78.11
2018-07-28T08:35:09.006Z,77.92
2018-07-28T08:36:08.999Z,77.05
2018-07-28T08:37:08.997Z,81.65
2018-07-28T08:38:09.252Z,76.33
2018-07-28T08:39:09.245Z,75.65
2018-07-28T08:40:08.974Z,72.36
2018-07-28T08:41:08.976Z,71.4
2018-07-28T08:42:09.224Z,65.69
2018-07-28T08:43:09.220Z,64.04
2018-07-28T08:44:08.951Z,67.33
2018-07-28T08:45:08.946Z,68.88
2018-07-28T08:46:09.197Z,68.88
2018-07-28T08:47:09.190Z,68.49
2018-07-28T08:48:09.193Z,68.59
2018-07-28T08:49:09.515Z,67.05
2018-07-28T08:51:08.907Z,68.98
2018-07-28T08:52:09.163Z,70.72
2018-07-28T08:53:08.895Z,71.78
2018-07-28T08:54:09.153Z,71.82
2018-07-28T08:55:09.141Z,70.18
2018-07-28T08:56:09.132Z,68.15
2018-07-28T08:57:09.134Z,71.04
2018-07-28T08:58:09.119Z,69.98
2018-07-28T08:59:08.849Z,72.15
2018-07-28T09:00:09.109Z,71.76
2018-07-28T09:01:09.101Z,70.4
2018-07-28T09:02:09.097Z,77.67
2018-07-28T09:03:09.093Z,76.41
2018-07-28T09:04:08.826Z,79.41
2018-07-28T09:05:08.814Z,76.79
2018-07-28T09:06:08.808Z,77.47
2018-07-28T09:07:09.067Z,76.21
2018-07-28T09:08:09.063Z,78.74
2018-07-28T09:09:08.792Z,77.19
2018-07-28T09:10:08.785Z,75.54
2018-07-28T09:11:09.077Z,79.7
2018-07-28T09:12:08.773Z,77.76
2018-07-28T09:13:08.767Z,75.73
2018-07-28T09:14:09.025Z,75.24
2018-07-28T09:15:08.748Z,78.25
2018-07-28T09:16:09.013Z,78.92
2018-07-28T09:17:09.005Z,79.22
2018-07-28T09:18:09.018Z,80.8
2018-07-28T09:19:08.993Z,78.05
2018-07-28T09:20:08.983Z,77.76
2018-07-28T09:21:08.766Z,73.99
2018-07-28T09:22:08.972Z,77.57
2018-07-28T09:23:08.762Z,77.28
2018-07-28T09:24:08.697Z,81.25
2018-07-28T09:25:08.957Z,81.83
2018-07-28T09:26:08.683Z,79.8
2018-07-28T09:27:08.692Z,77.37
2018-07-28T09:28:08.935Z,74.76
2018-07-28T09:29:08.927Z,75.11
2018-07-28T09:30:08.658Z,73.57
2018-07-28T09:31:08.654Z,74.05
2018-07-28T09:32:08.644Z,72.79
2018-07-28T09:33:08.645Z,72.6
2018-07-28T09:34:08.895Z,67.53
2018-07-28T09:35:08.626Z,61.82
2018-07-28T09:36:08.888Z,60.08
2018-07-28T09:37:08.879Z,57.76
2018-07-28T09:38:08.606Z,58.92
2018-07-28T09:39:08.862Z,58.24
2018-07-28T09:40:08.854Z,55.21
2018-07-28T09:41:08.852Z,51.83
2018-07-28T09:42:08.582Z,50.28
2018-07-28T09:43:08.576Z,49.9
2018-07-28T09:44:08.837Z,49.39
2018-07-28T09:45:08.559Z,49
2018-07-28T09:46:08.823Z,46.1
2018-07-28T09:47:08.893Z,41.85
2018-07-28T09:48:08.813Z,44.75
2018-07-28T09:49:08.790Z,42.6
2018-07-28T09:50:08.781Z,40.77
2018-07-28T09:51:08.778Z,42.99
2018-07-28T09:52:08.505Z,42.12
2018-07-28T09:53:08.496Z,41.05
2018-07-28T09:54:08.750Z,37.96
2018-07-28T09:55:08.476Z,38.54
2018-07-28T09:56:08.866Z,37.96
2018-07-28T09:57:08.767Z,38.74
2018-07-28T09:58:08.721Z,36.71
2018-07-28T09:59:08.719Z,34.39
2018-07-28T10:00:08.706Z,32.47
2018-07-28T10:01:08.694Z,34.12
2018-07-28T10:02:08.689Z,33.05
2018-07-28T10:03:08.419Z,35.28
2018-07-28T10:04:08.678Z,33.25
2018-07-28T10:05:08.667Z,35.08
2018-07-28T10:06:08.684Z,35.95
2018-07-28T10:07:08.653Z,35.66
2018-07-28T10:08:08.376Z,35.57
2018-07-28T10:09:08.632Z,33.83
2018-07-28T10:10:08.365Z,35.66
2018-07-28T10:11:08.348Z,33.92
2018-07-28T10:12:08.613Z,32.28
2018-07-28T10:13:08.341Z,35.58
2018-07-28T10:14:08.590Z,36.55
2018-07-28T10:15:08.324Z,35.88
2018-07-28T10:16:08.568Z,37.52
2018-07-28T10:17:08.595Z,37.81
2018-07-28T10:18:08.303Z,36.18
2018-07-28T10:19:08.558Z,33.57
2018-07-28T10:20:08.287Z,35.99
2018-07-28T10:21:08.543Z,37.34
2018-07-28T10:22:08.533Z,35.42
2018-07-28T10:23:08.719Z,42.59
2018-07-28T10:24:08.524Z,46.84
2018-07-28T10:25:08.514Z,43
2018-07-28T10:26:08.509Z,46.77
2018-07-28T10:27:08.505Z,45.9
2018-07-28T10:28:08.520Z,45.51
2018-07-28T10:29:08.226Z,44.45
2018-07-28T10:30:08.632Z,47.19
2018-07-28T10:31:08.523Z,53.49
2018-07-28T10:32:08.468Z,54.16
2018-07-28T10:33:08.205Z,50.09
2018-07-28T10:34:08.456Z,52.42
2018-07-28T10:35:08.449Z,54.94
2018-07-28T10:36:08.445Z,54.16
2018-07-28T10:37:08.436Z,51.84
2018-07-28T10:38:08.173Z,56.77
2018-07-28T10:39:08.433Z,56.87
2018-07-28T10:40:08.416Z,55.04
2018-07-28T10:41:08.153Z,58.52
2018-07-28T10:42:08.142Z,63.37
2018-07-28T10:43:08.412Z,65.01
2018-07-28T10:44:08.127Z,61.62
2018-07-28T10:45:08.131Z,61.17
2018-07-28T10:46:08.382Z,62.23
2018-07-28T10:47:08.113Z,65.63
2018-07-28T10:48:08.371Z,68.92
2018-07-28T10:49:08.100Z,68.63
2018-07-28T10:50:08.362Z,69.44
2018-07-28T10:51:08.355Z,74.19
2018-07-28T10:52:08.348Z,73.32
2018-07-28T10:53:08.078Z,70.8
2018-07-28T10:54:08.342Z,72.19
2018-07-28T10:55:08.069Z,72.67
2018-07-28T10:56:08.335Z,69.38
2018-07-28T10:57:08.320Z,78.25
2018-07-28T10:58:08.056Z,75.14
2018-07-28T10:59:08.310Z,75.95
2018-07-28T11:00:08.391Z,83.63
2018-07-28T11:01:08.046Z,77.02
2018-07-28T11:02:08.031Z,82.75
2018-07-28T11:03:08.029Z,76.44
2018-07-28T11:04:08.026Z,81.68
2018-07-28T11:05:08.025Z,88
2018-07-28T11:06:08.288Z,91.3
2018-07-28T11:07:08.013Z,90.62
2018-07-28T11:08:08.007Z,92.18
2018-07-28T11:09:08.081Z,95.09
2018-07-28T11:10:08.021Z,94.21
2018-07-28T11:11:08.258Z,95.53
2018-07-28T11:12:08.257Z,92.03
2018-07-28T11:13:07.986Z,94.46
2018-07-28T11:14:07.982Z,93.39
2018-07-28T11:15:07.974Z,92.18
2018-07-28T11:16:07.969Z,92.76
2018-07-28T11:17:07.963Z,92.08
2018-07-28T11:18:07.964Z,91.02
2018-07-28T11:19:08.475Z,91.79
2018-07-28T11:20:08.218Z,92.47
2018-07-28T11:21:07.948Z,91.89
2018-07-28T11:22:07.946Z,92.57
2018-07-28T11:23:08.202Z,96.69
2018-07-28T11:24:08.204Z,90.48
2018-07-28T11:25:08.193Z,97.56
2018-07-28T11:26:08.357Z,96.4
2018-07-28T11:27:07.918Z,96.3
2018-07-28T11:28:08.177Z,99.99
2018-07-28T11:29:07.907Z,99.99
2018-07-28T11:30:08.172Z,99.99
2018-07-28T11:31:07.900Z,99.99
2018-07-28T11:32:08.400Z,99.99
2018-07-28T11:33:07.894Z,99.99
2018-07-28T11:34:07.892Z,99.99
2018-07-28T11:35:07.893Z,99.99
2018-07-28T11:36:08.152Z,99.99
2018-07-28T11:37:08.156Z,99.46
2018-07-28T11:38:08.148Z,99.02
2018-07-28T11:39:08.149Z,91.49
2018-07-28T11:40:07.884Z,96.87
2018-07-28T11:41:08.151Z,99.99
2018-07-28T11:42:08.147Z,91.16
2018-07-28T11:43:08.149Z,93.21
2018-07-28T11:44:08.145Z,88.91
2018-07-28T11:45:08.193Z,94.62
2018-07-28T11:46:08.152Z,99.99
2018-07-28T11:47:07.881Z,95.8
2018-07-28T11:48:07.884Z,92.97
2018-07-28T11:49:07.888Z,98.73
2018-07-28T11:50:08.145Z,95.07
2018-07-28T11:51:07.886Z,98.05
2018-07-28T11:52:08.143Z,99.99
2018-07-28T11:53:08.154Z,99.99
2018-07-28T11:54:08.151Z,99.9
2018-07-28T11:55:07.881Z,97.66
2018-07-28T11:56:08.147Z,92.24
2018-07-28T11:57:07.886Z,88.18
2018-07-28T11:58:08.294Z,82.65
2018-07-28T11:59:07.886Z,86.17
2018-07-28T12:00:08.150Z,81.29
2018-07-28T12:01:08.144Z,79.88
2018-07-28T12:02:07.883Z,84.77
2018-07-28T12:03:07.897Z,81.11
2018-07-28T12:04:07.881Z,81.79
2018-07-28T12:05:07.886Z,81.84
2018-07-28T12:06:08.149Z,79.33
2018-07-28T12:07:07.882Z,77.81
2018-07-28T12:08:07.882Z,78.98
2018-07-28T12:09:08.143Z,77.26
2018-07-28T12:10:08.146Z,73.87
2018-07-28T12:11:08.147Z,73.19
2018-07-28T12:12:08.149Z,71.81
2018-07-28T12:13:07.887Z,73.87
2018-07-28T12:14:07.888Z,73.58
2018-07-28T12:15:07.888Z,74.36
2018-07-28T12:16:08.371Z,73.97
2018-07-28T12:17:08.155Z,71.17
2018-07-28T12:18:08.232Z,70.06
2018-07-28T12:19:08.162Z,70.45
2018-07-28T12:20:08.161Z,71.2
2018-07-28T12:21:08.164Z,72.96
2018-07-28T12:22:08.164Z,70.32
2018-07-28T12:23:07.902Z,69.96
2018-07-28T12:24:08.016Z,66.6
2018-07-28T12:25:07.910Z,66.24
2018-07-28T12:26:08.177Z,64.79
2018-07-28T12:27:08.178Z,64.7
2018-07-28T12:28:07.915Z,63.45
2018-07-28T12:29:08.188Z,64.04
2018-07-28T12:30:07.927Z,63.84
2018-07-28T12:31:08.188Z,62.9
2018-07-28T12:32:07.930Z,61.98
2018-07-28T12:33:08.201Z,65.22
2018-07-28T12:34:08.203Z,62.99
2018-07-28T12:35:08.223Z,61.71
2018-07-28T12:36:08.210Z,61.65
2018-07-28T12:37:08.217Z,61.29
2018-07-28T12:38:07.960Z,58.56
2018-07-28T12:39:08.223Z,58.56
2018-07-28T12:40:07.963Z,58.65
2018-07-28T12:41:08.025Z,61.18
2018-07-28T12:42:08.233Z,58.23
2018-07-28T12:43:08.241Z,59.74
2018-07-28T12:44:08.252Z,58.53
2018-07-28T12:45:08.260Z,57.57
2018-07-28T12:46:07.994Z,57.77
2018-07-28T12:47:07.995Z,58.33
2018-07-28T12:48:08.000Z,60.37
2018-07-28T12:49:08.278Z,61.68
2018-07-28T12:50:08.276Z,63.13
2018-07-28T12:51:08.017Z,61.79
2018-07-28T12:52:08.024Z,61.76
2018-07-28T12:53:08.305Z,61.7
2018-07-28T12:54:08.301Z,63.82
2018-07-28T12:55:08.351Z,64.9